Time;durP1;ratioP1;P1;durP2;ratioP2;P2;SDS_P1;SDS_P2;PMS_P1;PMS_P2;Temp;Humidity;BMP_temperature;BMP_pressure;BME280_temperature;BME280_humidity;BME280_pressure;Samples;Min_cycle;Max_cycle;Signal;HPM_P1;HPM_P2
2023/06/12 00:01:08;;;;;;;8.63;3.65;;;19.50;94.80;;;;;;6251201;22;20011;-75
2023/06/12 00:03:34;;;;;;;8.50;3.85;;;19.40;95.10;;;;;;6225489;22;20012;-75
2023/06/12 00:06:00;;;;;;;8.88;3.53;;;19.40;95.50;;;;;;6250716;22;20471;-74
2023/06/12 00:08:33;;;;;;;7.55;3.33;;;19.30;96.00;;;;;;6250608;22;20019;-74
2023/06/12 00:10:59;;;;;;;9.48;3.58;;;19.20;96.40;;;;;;6225793;22;20004;-74
2023/06/12 00:13:24;;;;;;;7.97;3.53;;;19.10;96.60;;;;;;6225758;22;20012;-74
2023/06/12 00:15:50;;;;;;;7.93;3.35;;;19.00;97.10;;;;;;6251090;22;20406;-74
2023/06/12 00:18:17;;;;;;;6.57;3.60;;;19.00;97.20;;;;;;6250063;22;20022;-74
2023/06/12 00:20:43;;;;;;;5.93;3.08;;;19.00;97.70;;;;;;6249994;22;20456;-74
2023/06/12 00:23:12;;;;;;;7.30;3.53;;;18.90;97.80;;;;;;6225722;22;20034;-75
2023/06/12 00:25:39;;;;;;;8.55;3.65;;;18.90;98.10;;;;;;6250482;22;20015;-75
2023/06/12 00:28:05;;;;;;;9.93;3.60;;;18.90;98.40;;;;;;6225367;22;20057;-75
2023/06/12 00:30:30;;;;;;;8.50;3.30;;;18.80;98.80;;;;;;6249594;22;20008;-74
2023/06/12 00:32:56;;;;;;;8.90;3.47;;;18.70;98.90;;;;;;6225580;22;20018;-75
2023/06/12 00:35:22;;;;;;;8.38;3.50;;;18.70;99.20;;;;;;6250431;22;20013;-74
2023/06/12 00:37:48;;;;;;;8.52;3.30;;;18.70;99.80;;;;;;6250797;22;20086;-75
2023/06/12 00:40:14;;;;;;;7.30;3.35;;;18.60;99.70;;;;;;6250697;22;20011;-74
2023/06/12 00:42:45;;;;;;;7.65;3.10;;;18.60;99.90;;;;;;6225120;22;20047;-74
2023/06/12 00:45:16;;;;;;;7.22;3.05;;;18.60;99.90;;;;;;6250297;22;20461;-75
2023/06/12 00:47:45;;;;;;;8.93;3.97;;;18.60;99.90;;;;;;6225143;22;20012;-75
2023/06/12 00:50:12;;;;;;;11.10;3.47;;;18.60;99.90;;;;;;6225275;22;20057;-75
2023/06/12 00:52:43;;;;;;;9.10;3.55;;;18.50;99.90;;;;;;6224413;22;20018;-75
2023/06/12 00:55:09;;;;;;;7.15;3.40;;;18.50;99.90;;;;;;6249106;22;20018;-75
2023/06/12 00:57:36;;;;;;;6.80;3.20;;;18.50;99.90;;;;;;6224710;22;20088;-75
2023/06/12 01:00:05;;;;;;;8.45;3.30;;;18.30;99.90;;;;;;6249989;22;20022;-75
2023/06/12 01:02:32;;;;;;;9.02;3.58;;;18.30;99.90;;;;;;6224365;22;20012;-75
2023/06/12 01:04:57;;;;;;;6.72;2.88;;;18.30;99.90;;;;;;6242316;22;20016;-75
2023/06/12 01:07:55;;;;;;;9.38;3.58;;;18.30;99.90;;;;;;6247702;22;20019;-75
2023/06/12 01:10:23;;;;;;;6.80;3.10;;;18.30;99.90;;;;;;6207362;22;20365;-75
2023/06/12 01:12:51;;;;;;;6.55;3.13;;;18.30;99.90;;;;;;6249596;22;20008;-75
2023/06/12 01:15:16;;;;;;;11.07;3.30;;;18.40;99.90;;;;;;6249737;22;20061;-75
2023/06/12 01:17:42;;;;;;;7.90;3.00;;;18.30;99.90;;;;;;6223609;22;20016;-75
2023/06/12 01:20:13;;;;;;;7.35;3.13;;;18.30;99.90;;;;;;6249847;22;20445;-76
2023/06/12 01:23:12;;;;;;;7.17;3.13;;;18.20;99.90;;;;;;6249529;22;20057;-76
2023/06/12 01:25:46;;;;;;;8.18;3.10;;;18.10;99.90;;;;;;6162782;22;20023;-75
2023/06/12 01:28:21;;;;;;;7.90;3.40;;;18.10;99.90;;;;;;6223807;22;20067;-75
2023/06/12 01:31:32;;;;;;;7.85;3.50;;;18.10;99.90;;;;;;6224497;22;20011;-75
2023/06/12 01:34:15;;;;;;;7.35;3.25;;;18.20;99.90;;;;;;6175394;22;20067;-75
2023/06/12 01:36:45;;;;;;;8.25;2.88;;;18.10;99.90;;;;;;6249721;22;20017;-75
2023/06/12 01:39:13;;;;;;;9.98;3.35;;;18.20;99.90;;;;;;6222617;22;20442;-75
2023/06/12 01:41:40;;;;;;;10.88;3.40;;;18.00;99.90;;;;;;6249670;22;20054;-75
2023/06/12 01:44:09;;;;;;;9.20;3.30;;;18.10;99.90;;;;;;6249242;22;20319;-75
2023/06/12 01:46:35;;;;;;;7.82;3.00;;;18.10;99.90;;;;;;6224834;22;20018;-75
2023/06/12 01:49:05;;;;;;;8.15;2.97;;;18.10;99.90;;;;;;6223179;22;20338;-75
2023/06/12 01:51:30;;;;;;;9.77;3.00;;;18.00;99.90;;;;;;6248676;22;20035;-75
2023/06/12 01:53:56;;;;;;;8.77;3.40;;;18.00;99.90;;;;;;6249104;22;20023;-75
2023/06/12 01:56:25;;;;;;;9.75;3.63;;;17.90;99.90;;;;;;6246568;22;20011;-76
2023/06/12 01:58:52;;;;;;;8.55;3.67;;;17.90;99.90;;;;;;6249517;22;20018;-75
2023/06/12 02:01:18;;;;;;;8.35;3.38;;;17.80;99.90;;;;;;6222830;22;20012;-75
2023/06/12 02:03:48;;;;;;;7.72;3.47;;;17.70;99.90;;;;;;6223699;22;20012;-75
2023/06/12 02:06:17;;;;;;;7.80;3.22;;;17.70;99.90;;;;;;6249023;22;20331;-75
2023/06/12 02:08:43;;;;;;;7.93;3.22;;;17.70;99.90;;;;;;6224626;22;20098;-75
2023/06/12 02:11:09;;;;;;;7.47;3.60;;;17.60;99.90;;;;;;6248178;22;20457;-76
2023/06/12 02:13:35;;;;;;;8.52;3.35;;;17.50;99.90;;;;;;6249485;22;20019;-76
2023/06/12 02:16:03;;;;;;;8.40;3.45;;;17.40;99.90;;;;;;6223385;22;20003;-76
2023/06/12 02:18:30;;;;;;;8.85;3.50;;;17.40;99.90;;;;;;6224032;22;20448;-76
2023/06/12 02:20:56;;;;;;;10.38;3.28;;;17.30;99.90;;;;;;6223637;22;20008;-76
2023/06/12 02:23:21;;;;;;;9.05;3.55;;;17.30;99.90;;;;;;6224194;22;20062;-76
2023/06/12 02:25:47;;;;;;;10.73;3.65;;;17.30;99.90;;;;;;6221472;22;20446;-75
2023/06/12 02:28:13;;;;;;;7.95;3.40;;;17.20;99.90;;;;;;6248499;22;20012;-75
2023/06/12 02:30:38;;;;;;;8.82;3.65;;;17.20;99.90;;;;;;6248446;22;20345;-75
2023/06/12 02:33:09;;;;;;;8.27;3.40;;;17.20;99.90;;;;;;6249138;22;20078;-75
2023/06/12 02:35:35;;;;;;;7.50;3.60;;;17.10;99.90;;;;;;6248002;22;20019;-75
2023/06/12 02:38:01;;;;;;;12.00;3.80;;;17.20;99.90;;;;;;6220990;22;20015;-75
2023/06/12 02:40:26;;;;;;;7.65;3.45;;;17.00;99.90;;;;;;6224342;22;20353;-75
2023/06/12 02:42:52;;;;;;;8.02;3.60;;;17.10;99.90;;;;;;6223164;22;20061;-75
2023/06/12 02:45:18;;;;;;;11.43;3.53;;;17.20;99.90;;;;;;6223943;22;20098;-75
2023/06/12 02:47:43;;;;;;;7.45;3.03;;;17.20;99.90;;;;;;6246310;22;20012;-75
2023/06/12 02:50:09;;;;;;;7.88;3.20;;;17.30;99.90;;;;;;6223363;22;20011;-75
2023/06/12 02:52:34;;;;;;;7.65;3.10;;;17.20;99.90;;;;;;6222189;22;20012;-75
2023/06/12 02:55:00;;;;;;;6.93;3.40;;;17.30;99.90;;;;;;6223894;22;20034;-75
2023/06/12 02:57:25;;;;;;;7.43;3.45;;;17.30;99.90;;;;;;6221369;22;20042;-75
2023/06/12 02:59:51;;;;;;;8.50;3.30;;;17.30;99.90;;;;;;6248536;22;20015;-76
2023/06/12 03:02:17;;;;;;;7.07;3.22;;;17.30;99.90;;;;;;6223407;22;20042;-76
2023/06/12 03:04:42;;;;;;;7.60;3.20;;;17.40;99.90;;;;;;6248893;22;20015;-76
2023/06/12 03:07:08;;;;;;;7.22;3.38;;;17.40;99.90;;;;;;6248460;22;20465;-76
2023/06/12 03:09:34;;;;;;;7.88;3.22;;;17.40;99.90;;;;;;6223488;22;20015;-76
2023/06/12 03:12:00;;;;;;;8.55;3.20;;;17.40;99.90;;;;;;6248122;22;20062;-76
2023/06/12 03:14:26;;;;;;;10.23;3.72;;;17.40;99.90;;;;;;6249021;22;20035;-75
2023/06/12 03:16:52;;;;;;;9.70;3.78;;;17.40;99.90;;;;;;6223802;22;20070;-75
2023/06/12 03:19:17;;;;;;;7.50;3.47;;;17.40;99.90;;;;;;6247907;22;20016;-75
2023/06/12 03:21:43;;;;;;;9.32;3.58;;;17.30;99.90;;;;;;6249017;22;20090;-75
2023/06/12 03:24:09;;;;;;;10.38;3.88;;;17.30;99.90;;;;;;6223434;22;20011;-75
2023/06/12 03:26:34;;;;;;;8.43;3.63;;;17.30;99.90;;;;;;6247997;22;20327;-75
2023/06/12 03:29:03;;;;;;;11.57;3.60;;;17.30;99.90;;;;;;6223477;22;20090;-76
2023/06/12 03:31:29;;;;;;;7.63;3.50;;;17.30;99.90;;;;;;6223697;22;20008;-76
2023/06/12 03:33:55;;;;;;;10.05;3.30;;;17.40;99.90;;;;;;6223269;22;20103;-76
2023/06/12 03:36:23;;;;;;;8.65;3.80;;;17.40;99.90;;;;;;6248955;22;20397;-76
2023/06/12 03:38:50;;;;;;;8.77;3.63;;;17.40;99.90;;;;;;6222724;22;20405;-76
2023/06/12 03:41:15;;;;;;;8.20;3.55;;;17.40;99.90;;;;;;6224113;22;20012;-76
2023/06/12 03:43:41;;;;;;;7.20;3.42;;;17.30;99.90;;;;;;6247626;22;20008;-76
2023/06/12 03:46:06;;;;;;;8.35;3.42;;;17.20;99.90;;;;;;6223198;22;20016;-76
2023/06/12 03:48:32;;;;;;;7.15;3.35;;;17.20;99.90;;;;;;6223663;22;20008;-76
2023/06/12 03:51:05;;;;;;;7.65;3.40;;;17.20;99.90;;;;;;6248245;22;20008;-76
2023/06/12 03:53:47;;;;;;;7.57;3.45;;;17.20;99.90;;;;;;6221760;22;20070;-75
2023/06/12 03:56:36;;;;;;;10.15;3.40;;;17.20;99.90;;;;;;6247357;22;20012;-76
2023/06/12 03:59:11;;;;;;;12.73;3.55;;;17.10;99.90;;;;;;6224669;22;20319;-76
2023/06/12 04:01:38;;;;;;;8.80;3.40;;;17.10;99.90;;;;;;6222127;22;20027;-76
2023/06/12 04:04:04;;;;;;;7.95;3.53;;;17.00;99.90;;;;;;6222835;22;20047;-76
2023/06/12 04:06:32;;;;;;;8.70;3.30;;;17.00;99.90;;;;;;6250518;22;20099;-76
2023/06/12 04:08:59;;;;;;;8.75;3.65;;;17.00;99.90;;;;;;6249679;22;20011;-76
2023/06/12 04:11:25;;;;;;;7.80;3.50;;;17.00;99.90;;;;;;6225381;22;20011;-76
2023/06/12 04:13:51;;;;;;;8.68;3.50;;;17.00;99.90;;;;;;6223973;22;20019;-76
2023/06/12 04:16:16;;;;;;;6.55;3.10;;;17.00;99.90;;;;;;6223861;22;20004;-75
2023/06/12 04:18:42;;;;;;;10.05;3.83;;;17.00;99.90;;;;;;6224605;22;20441;-75
2023/06/12 04:21:08;;;;;;;9.05;3.80;;;17.10;99.90;;;;;;6249656;22;20087;-76
2023/06/12 04:23:37;;;;;;;10.02;4.03;;;17.00;99.90;;;;;;6250031;22;20012;-76
2023/06/12 04:26:05;;;;;;;10.32;3.70;;;17.00;99.90;;;;;;6250824;22;20420;-75
2023/06/12 04:28:32;;;;;;;9.00;3.75;;;17.00;99.90;;;;;;6248605;22;20011;-75
2023/06/12 04:30:59;;;;;;;8.80;3.72;;;17.00;99.90;;;;;;6224948;22;20049;-75
2023/06/12 04:33:30;;;;;;;8.07;3.67;;;17.10;99.90;;;;;;6249473;22;20012;-75
2023/06/12 04:35:57;;;;;;;10.82;4.50;;;17.10;99.90;;;;;;6225061;22;20035;-76
2023/06/12 04:38:23;;;;;;;7.68;3.47;;;17.00;99.90;;;;;;6224676;22;20012;-75
2023/06/12 04:40:51;;;;;;;8.43;3.63;;;17.00;99.90;;;;;;6250758;22;20338;-76
2023/06/12 04:43:19;;;;;;;6.88;3.47;;;17.00;99.90;;;;;;6224542;22;20022;-76
2023/06/12 04:45:45;;;;;;;9.40;4.07;;;16.90;99.90;;;;;;6249734;22;20083;-76
2023/06/12 04:48:12;;;;;;;8.98;4.50;;;17.00;99.90;;;;;;6224543;22;20043;-76
2023/06/12 04:50:38;;;;;;;8.75;3.92;;;17.00;99.90;;;;;;6224258;22;20004;-76
2023/06/12 04:53:03;;;;;;;9.77;3.95;;;17.00;99.90;;;;;;6224464;22;20084;-76
2023/06/12 04:55:30;;;;;;;9.32;4.07;;;17.10;99.90;;;;;;6249198;22;20454;-76
2023/06/12 04:57:57;;;;;;;10.25;3.85;;;17.10;99.90;;;;;;6224448;22;20049;-76
2023/06/12 05:00:24;;;;;;;9.10;3.92;;;17.00;99.90;;;;;;6224360;22;20015;-76
2023/06/12 05:02:49;;;;;;;8.75;4.53;;;17.20;99.90;;;;;;6224670;22;20090;-76
2023/06/12 05:05:16;;;;;;;11.02;4.13;;;17.20;99.90;;;;;;6223549;22;20066;-76
2023/06/12 05:07:45;;;;;;;9.70;4.47;;;17.30;99.90;;;;;;6223255;22;20117;-76
2023/06/12 05:10:15;;;;;;;9.98;4.20;;;17.20;99.90;;;;;;6224774;22;20019;-76
2023/06/12 05:12:40;;;;;;;10.05;4.28;;;17.20;99.90;;;;;;6224314;22;20011;-76
2023/06/12 05:15:07;;;;;;;10.25;4.35;;;17.20;99.90;;;;;;6224740;22;20468;-76
2023/06/12 05:17:33;;;;;;;8.63;4.47;;;17.20;99.90;;;;;;6223173;22;20380;-76
2023/06/12 05:19:58;;;;;;;10.27;4.22;;;17.30;99.90;;;;;;6249996;22;20011;-76
2023/06/12 05:22:25;;;;;;;8.43;4.05;;;17.30;99.90;;;;;;6223673;22;20019;-76
2023/06/12 05:24:50;;;;;;;11.02;4.53;;;17.40;99.90;;;;;;6224085;22;20007;-76
2023/06/12 05:27:16;;;;;;;10.52;4.55;;;17.40;99.90;;;;;;6225142;22;20020;-75
2023/06/12 05:29:41;;;;;;;10.77;4.60;;;17.30;99.90;;;;;;6248695;22;20015;-77
2023/06/12 05:32:07;;;;;;;7.82;4.32;;;17.40;99.90;;;;;;6224498;22;20004;-77
2023/06/12 05:34:33;;;;;;;9.45;4.47;;;17.60;99.90;;;;;;6223387;22;20015;-77
2023/06/12 05:36:59;;;;;;;12.82;4.63;;;17.60;99.90;;;;;;6248890;22;20026;-77
2023/06/12 05:39:25;;;;;;;12.63;4.75;;;17.70;99.90;;;;;;6222078;22;20051;-77
2023/06/12 05:41:50;;;;;;;11.82;4.70;;;17.80;99.90;;;;;;6223430;22;20016;-77
2023/06/12 05:44:16;;;;;;;9.95;4.65;;;17.90;99.90;;;;;;6223964;22;20022;-77
2023/06/12 05:46:43;;;;;;;12.38;5.38;;;17.90;99.90;;;;;;6223762;22;20011;-86
2023/06/12 05:49:08;;;;;;;10.35;4.72;;;17.90;99.90;;;;;;6224472;22;20011;-82
2023/06/12 05:51:35;;;;;;;10.82;4.53;;;18.00;99.90;;;;;;6248352;22;20004;-84
2023/06/12 05:54:01;;;;;;;10.23;4.50;;;18.10;99.90;;;;;;6249887;22;20015;-75
2023/06/12 05:56:27;;;;;;;11.23;4.93;;;18.20;99.90;;;;;;6249136;22;20011;-76
2023/06/12 05:58:52;;;;;;;9.10;4.65;;;18.30;99.90;;;;;;6249171;22;20019;-76
2023/06/12 06:01:21;;;;;;;10.05;4.85;;;18.50;99.90;;;;;;6249999;22;20011;-76
2023/06/12 06:03:48;;;;;;;10.52;5.10;;;18.60;99.90;;;;;;6223237;22;20404;-76
2023/06/12 06:06:15;;;;;;;9.52;5.00;;;18.80;99.90;;;;;;6224235;22;20334;-75
2023/06/12 06:08:41;;;;;;;11.50;5.20;;;18.90;99.90;;;;;;6224031;22;20066;-76
2023/06/12 06:11:07;;;;;;;11.90;5.28;;;18.90;99.90;;;;;;6249891;22;20008;-76
2023/06/12 06:13:32;;;;;;;12.23;5.43;;;18.90;99.90;;;;;;6223955;22;20083;-76
2023/06/12 06:15:58;;;;;;;13.02;5.60;;;19.00;99.90;;;;;;6224594;22;20012;-76
2023/06/12 06:18:24;;;;;;;13.82;5.45;;;19.10;99.90;;;;;;6249267;22;20381;-76
2023/06/12 06:20:49;;;;;;;13.90;5.95;;;19.20;99.90;;;;;;6249603;22;20065;-76
2023/06/12 06:23:15;;;;;;;11.07;4.90;;;19.20;99.90;;;;;;6224380;22;20018;-76
2023/06/12 06:25:41;;;;;;;14.13;4.70;;;19.40;99.90;;;;;;6223955;22;20011;-76
2023/06/12 06:28:06;;;;;;;11.18;5.30;;;19.50;99.90;;;;;;6224209;22;20038;-76
2023/06/12 06:30:32;;;;;;;10.25;4.80;;;19.60;99.90;;;;;;6248973;22;20007;-76
2023/06/12 06:32:58;;;;;;;12.25;4.75;;;19.70;99.90;;;;;;6224369;22;20049;-76
2023/06/12 06:35:24;;;;;;;9.68;5.43;;;19.90;99.90;;;;;;6223813;22;20007;-76
2023/06/12 06:37:49;;;;;;;12.85;5.53;;;19.90;99.90;;;;;;6224519;22;20386;-76
2023/06/12 06:40:15;;;;;;;12.23;5.35;;;20.00;99.90;;;;;;6249309;22;20442;-75
2023/06/12 06:42:41;;;;;;;11.10;5.10;;;20.10;99.90;;;;;;6224168;22;20319;-76
2023/06/12 06:45:07;;;;;;;9.40;5.38;;;20.10;99.90;;;;;;6248358;22;20022;-76
2023/06/12 06:47:33;;;;;;;10.23;5.75;;;20.20;99.90;;;;;;6224366;22;20004;-76
2023/06/12 06:49:59;;;;;;;10.10;5.00;;;20.20;99.90;;;;;;6249194;22;20383;-76
2023/06/12 06:52:25;;;;;;;10.07;5.40;;;20.40;99.90;;;;;;6249483;22;20011;-76
2023/06/12 06:54:52;;;;;;;9.48;5.13;;;20.50;99.90;;;;;;6249131;22;20345;-76
2023/06/12 06:57:18;;;;;;;12.40;6.13;;;20.60;99.90;;;;;;6249466;22;20477;-75
2023/06/12 06:59:44;;;;;;;11.77;5.65;;;20.50;99.90;;;;;;6248918;22;20012;-75
2023/06/12 07:02:10;;;;;;;10.57;5.40;;;20.70;99.90;;;;;;6223705;22;20016;-75
2023/06/12 07:04:35;;;;;;;11.95;6.00;;;20.80;99.90;;;;;;6248804;22;20038;-75
2023/06/12 07:07:01;;;;;;;12.27;5.70;;;20.80;99.90;;;;;;6248679;22;20465;-75
2023/06/12 07:09:26;;;;;;;12.25;5.95;;;20.90;99.90;;;;;;6249435;22;20066;-75
2023/06/12 07:11:52;;;;;;;11.55;5.40;;;21.00;99.90;;;;;;6249035;22;20014;-75
2023/06/12 07:14:18;;;;;;;10.05;5.60;;;21.00;99.90;;;;;;6249013;22;20060;-75
2023/06/12 07:16:44;;;;;;;10.77;5.57;;;21.10;99.90;;;;;;6248922;22;20015;-74
2023/06/12 07:19:10;;;;;;;10.13;5.55;;;21.10;99.90;;;;;;6222849;22;20043;-75
2023/06/12 07:21:36;;;;;;;13.68;5.57;;;21.20;99.90;;;;;;6249423;22;20026;-76
2023/06/12 07:24:03;;;;;;;11.27;5.07;;;21.30;99.90;;;;;;6248236;22;20504;-85
2023/06/12 07:26:28;;;;;;;11.63;5.65;;;21.40;99.90;;;;;;6222605;22;20008;-82
2023/06/12 07:28:54;;;;;;;9.45;5.07;;;21.40;99.90;;;;;;6222197;22;20319;-76
2023/06/12 07:31:20;;;;;;;11.70;5.65;;;21.50;99.90;;;;;;6249055;22;20011;-76
2023/06/12 07:33:46;;;;;;;11.77;5.30;;;21.60;99.90;;;;;;6222700;22;20012;-76
2023/06/12 07:36:12;;;;;;;11.95;5.53;;;21.70;99.90;;;;;;6223497;22;20043;-76
2023/06/12 07:38:39;;;;;;;12.40;5.28;;;21.80;99.90;;;;;;6223967;22;20470;-76
2023/06/12 07:41:04;;;;;;;14.60;5.07;;;21.90;99.90;;;;;;6248637;22;20327;-76
2023/06/12 07:43:34;;;;;;;11.27;5.43;;;21.90;99.90;;;;;;6224341;22;20137;-76
2023/06/12 07:46:00;;;;;;;11.65;5.68;;;21.90;99.90;;;;;;6225027;22;20519;-76
2023/06/12 07:48:26;;;;;;;11.85;5.53;;;22.00;99.90;;;;;;6224989;22;20015;-76
2023/06/12 07:50:52;;;;;;;12.98;5.32;;;22.10;99.90;;;;;;6225211;22;20008;-76
2023/06/12 07:53:17;;;;;;;12.02;6.25;;;22.20;99.90;;;;;;6226014;22;20004;-76
2023/06/12 07:55:43;;;;;;;8.98;5.50;;;22.20;99.90;;;;;;6250458;22;20012;-76
2023/06/12 07:58:09;;;;;;;11.00;6.13;;;22.30;99.90;;;;;;6224988;22;20497;-76
2023/06/12 08:00:36;;;;;;;10.57;6.07;;;22.40;99.90;;;;;;6250787;22;20137;-76
2023/06/12 08:03:03;;;;;;;12.07;5.90;;;22.40;99.90;;;;;;6225429;22;20020;-76
2023/06/12 08:05:29;;;;;;;10.40;5.40;;;22.50;99.90;;;;;;6249837;22;20008;-76
2023/06/12 08:07:55;;;;;;;10.15;5.65;;;22.60;99.90;;;;;;6250713;22;20024;-76
2023/06/12 08:10:21;;;;;;;14.45;6.00;;;22.60;99.90;;;;;;6249950;22;20004;-76
2023/06/12 08:12:47;;;;;;;14.93;6.40;;;22.70;99.90;;;;;;6249624;22;20012;-76
2023/06/12 08:15:13;;;;;;;11.88;6.15;;;22.90;99.90;;;;;;6225699;22;20019;-76
2023/06/12 08:17:41;;;;;;;11.93;6.60;;;22.80;99.90;;;;;;6225119;22;20412;-76
2023/06/12 08:20:09;;;;;;;10.50;6.82;;;22.90;99.90;;;;;;6250664;22;20012;-76
2023/06/12 08:22:36;;;;;;;12.15;5.93;;;22.90;99.90;;;;;;6225544;22;20094;-76
2023/06/12 08:25:08;;;;;;;11.45;6.35;;;23.10;99.90;;;;;;6225565;22;20004;-76
2023/06/12 08:27:34;;;;;;;10.35;5.70;;;23.20;99.90;;;;;;6249712;22;20091;-76
2023/06/12 08:30:01;;;;;;;12.05;5.93;;;23.30;99.90;;;;;;6225546;22;20016;-77
2023/06/12 08:32:26;;;;;;;11.80;6.63;;;23.40;99.90;;;;;;6225542;22;20342;-82
2023/06/12 08:34:53;;;;;;;13.80;5.75;;;23.50;99.90;;;;;;6250320;22;20012;-79
2023/06/12 08:37:22;;;;;;;10.80;5.75;;;23.50;99.90;;;;;;6250246;22;20086;-76
2023/06/12 08:39:47;;;;;;;10.07;5.55;;;23.60;99.90;;;;;;6225491;22;20097;-76
2023/06/12 08:42:15;;;;;;;10.70;5.88;;;23.60;99.90;;;;;;6225164;22;20015;-77
2023/06/12 08:44:46;;;;;;;9.98;5.47;;;23.70;99.90;;;;;;6222976;22;20506;-76
2023/06/12 08:47:15;;;;;;;12.18;5.60;;;23.80;99.90;;;;;;6250814;22;20050;-76
2023/06/12 08:49:42;;;;;;;11.65;5.95;;;23.90;99.90;;;;;;6225275;22;20008;-76
2023/06/12 08:52:10;;;;;;;11.30;5.95;;;24.00;99.90;;;;;;6224443;22;20012;-76
2023/06/12 08:54:40;;;;;;;10.80;6.60;;;24.10;99.90;;;;;;6224413;22;20007;-76
2023/06/12 08:57:07;;;;;;;9.75;6.13;;;24.10;99.80;;;;;;6249292;22;20087;-76
2023/06/12 08:59:33;;;;;;;10.73;5.90;;;24.20;99.90;;;;;;6224504;22;20018;-76
2023/06/12 09:01:59;;;;;;;9.77;5.63;;;24.40;99.90;;;;;;6249768;22;20012;-76
2023/06/12 09:04:48;;;;;;;12.02;5.60;;;24.40;99.90;;;;;;6250017;22;20450;-76
2023/06/12 09:07:17;;;;;;;9.27;5.45;;;24.50;99.90;;;;;;6224289;22;20085;-81
2023/06/12 09:09:45;;;;;;;8.70;5.15;;;24.70;99.70;;;;;;6225120;22;20007;-81
2023/06/12 09:12:12;;;;;;;14.38;6.97;;;24.80;98.80;;;;;;6225271;22;20039;-82
2023/06/12 09:14:39;;;;;;;11.85;5.07;;;24.80;96.80;;;;;;6224576;22;20011;-82
2023/06/12 09:17:08;;;;;;;13.50;5.45;;;24.90;98.90;;;;;;6249157;22;20323;-82
2023/06/12 09:19:48;;;;;;;9.38;5.18;;;25.00;99.00;;;;;;6224318;22;20011;-76
2023/06/12 09:22:14;;;;;;;10.82;5.60;;;25.10;97.80;;;;;;6224692;22;20012;-76
2023/06/12 09:24:40;;;;;;;10.48;6.07;;;25.00;95.50;;;;;;6248995;22;20063;-75
2023/06/12 09:27:07;;;;;;;12.07;5.57;;;25.20;96.80;;;;;;6249849;22;20012;-76
2023/06/12 09:29:38;;;;;;;11.57;6.10;;;25.30;96.70;;;;;;6248615;22;20014;-76
2023/06/12 09:32:06;;;;;;;;;;;25.40;95.00;;;;;;6250461;22;20004;-75
2023/06/12 09:34:33;;;;;;;10.63;5.15;;;25.40;96.70;;;;;;6249633;22;19915;-76
2023/06/12 09:37:00;;;;;;;12.65;5.57;;;25.50;96.50;;;;;;6250098;22;20438;-76
2023/06/12 09:39:27;;;;;;;8.35;4.90;;;25.50;95.90;;;;;;6249991;22;20008;-76
2023/06/12 09:41:54;;;;;;;9.60;5.10;;;25.60;95.90;;;;;;6224871;22;20499;-75
2023/06/12 09:44:30;;;;;;;9.57;5.32;;;25.70;95.70;;;;;;6248675;22;20086;-76
2023/06/12 09:47:03;;;;;;;12.73;5.63;;;25.80;96.00;;;;;;6250141;22;20011;-75
2023/06/12 09:49:30;;;;;;;9.82;5.35;;;25.90;94.90;;;;;;6249193;22;20069;-75
2023/06/12 09:52:00;;;;;;;10.55;5.60;;;26.00;95.60;;;;;;6224687;22;20110;-75
2023/06/12 09:54:29;;;;;;;10.35;6.28;;;26.00;95.10;;;;;;6224645;22;20012;-75
2023/06/12 09:56:58;;;;;;;8.68;5.32;;;26.00;94.90;;;;;;6249363;22;20008;-75
2023/06/12 09:59:30;;;;;;;11.43;5.57;;;26.20;95.40;;;;;;6223940;22;20019;-75
2023/06/12 10:02:09;;;;;;;8.82;5.72;;;26.30;94.20;;;;;;6224134;22;20016;-75
2023/06/12 10:04:43;;;;;;;9.60;5.38;;;26.30;93.40;;;;;;6224484;22;20342;-75
2023/06/12 10:07:26;;;;;;;10.65;5.70;;;26.40;94.00;;;;;;6223248;22;20015;-75
2023/06/12 10:09:52;;;;;;;11.77;5.75;;;26.40;94.10;;;;;;6249458;22;20016;-75
2023/06/12 10:12:18;;;;;;;10.27;6.00;;;26.60;93.50;;;;;;6249825;22;20046;-76
2023/06/12 10:14:45;;;;;;;9.68;5.80;;;26.60;94.00;;;;;;6248509;22;20011;-80
2023/06/12 10:17:11;;;;;;;11.45;5.50;;;26.50;90.80;;;;;;6224100;22;20038;-82
2023/06/12 10:19:40;;;;;;;9.20;5.40;;;26.70;92.80;;;;;;6224451;22;20395;-81
2023/06/12 10:22:06;;;;;;;9.52;5.50;;;26.70;92.20;;;;;;6224161;22;20022;-80
2023/06/12 10:24:34;;;;;;;11.60;5.90;;;26.70;92.50;;;;;;6223094;22;20126;-80
2023/06/12 10:27:00;;;;;;;11.18;5.20;;;26.80;91.90;;;;;;6224796;22;20108;-81
2023/06/12 10:29:31;;;;;;;11.85;6.30;;;26.80;91.80;;;;;;6224586;22;20015;-81
2023/06/12 10:32:10;;;;;;;10.60;5.40;;;26.80;91.90;;;;;;6248840;22;20011;-80
2023/06/12 10:34:42;;;;;;;11.20;5.78;;;26.90;92.40;;;;;;6224255;22;20023;-80
2023/06/12 10:37:27;;;;;;;11.75;6.07;;;27.00;92.30;;;;;;6224381;22;20012;-81
2023/06/12 10:40:02;;;;;;;9.25;6.28;;;27.00;90.20;;;;;;6223991;22;20043;-81
2023/06/12 10:42:51;;;;;;;10.88;6.22;;;27.10;91.10;;;;;;6224022;22;20015;-80
2023/06/12 10:45:19;;;;;;;13.10;5.85;;;27.20;88.20;;;;;;6248649;22;20022;-81
2023/06/12 10:48:05;;;;;;;10.48;5.95;;;27.10;90.40;;;;;;6249652;22;20092;-80
2023/06/12 10:50:41;;;;;;;11.38;6.03;;;27.20;85.50;;;;;;6224023;22;20073;-82
2023/06/12 10:53:26;;;;;;;12.10;6.30;;;27.20;87.30;;;;;;6249192;22;20047;-80
2023/06/12 10:56:05;;;;;;;11.30;5.80;;;27.30;89.00;;;;;;6249387;22;20438;-81
2023/06/12 10:58:39;;;;;;;9.93;6.28;;;27.20;83.30;;;;;;6249209;22;20011;-76
2023/06/12 11:01:10;;;;;;;11.13;6.30;;;27.40;86.50;;;;;;6249077;22;20042;-84
2023/06/12 11:03:44;;;;;;;9.38;6.43;;;27.30;85.30;;;;;;6274771;22;20485;-75
2023/06/12 11:06:15;;;;;;;9.75;6.70;;;27.40;77.60;;;;;;6223360;22;20341;-75
2023/06/12 11:08:42;;;;;;;10.65;6.90;;;27.50;81.10;;;;;;6249595;22;20003;-74
2023/06/12 11:11:11;;;;;;;7.90;5.90;;;27.60;81.20;;;;;;6224136;22;20003;-74
2023/06/12 11:13:41;;;;;;;10.82;6.50;;;27.70;83.80;;;;;;6220134;22;20008;-76
2023/06/12 11:16:07;;;;;;;10.50;6.07;;;27.70;76.80;;;;;;6248094;22;20369;-76
2023/06/12 11:18:33;;;;;;;9.32;6.25;;;27.80;79.10;;;;;;6249074;22;20458;-74
2023/06/12 11:20:59;;;;;;;10.32;6.10;;;27.90;69.10;;;;;;6274096;22;20023;-74
2023/06/12 11:23:28;;;;;;;11.45;7.03;;;27.90;72.90;;;;;;6248893;22;20019;-74
2023/06/12 11:25:56;;;;;;;9.73;6.03;;;27.90;71.30;;;;;;6300081;22;20012;-74
2023/06/12 11:28:28;;;;;;;10.30;6.43;;;28.00;70.20;;;;;;6249422;22;20079;-74
2023/06/12 11:30:54;;;;;;;11.45;7.32;;;28.00;72.00;;;;;;6248448;22;20015;-74
2023/06/12 11:33:21;;;;;;;10.38;6.60;;;28.10;70.70;;;;;;6274556;22;20008;-73
2023/06/12 11:35:49;;;;;;;11.55;6.95;;;28.00;70.10;;;;;;6274625;22;20418;-74
2023/06/12 11:38:16;;;;;;;12.57;7.35;;;27.90;69.90;;;;;;6223638;22;20480;-74
2023/06/12 11:40:43;;;;;;;10.05;6.72;;;27.90;70.50;;;;;;6223995;22;20007;-74
2023/06/12 11:43:09;;;;;;;9.80;6.57;;;27.80;70.00;;;;;;6223571;22;20446;-74
2023/06/12 11:45:41;;;;;;;10.02;7.05;;;27.70;67.60;;;;;;6222573;22;20019;-74
2023/06/12 11:48:13;;;;;;;11.90;7.20;;;27.70;68.10;;;;;;6272887;22;20012;-74
2023/06/12 11:50:39;;;;;;;10.90;6.53;;;27.50;70.20;;;;;;6247604;22;20039;-74
2023/06/12 11:53:05;;;;;;;10.18;6.85;;;27.40;71.70;;;;;;6249224;22;20090;-75
2023/06/12 11:55:32;;;;;;;13.30;6.50;;;27.50;69.90;;;;;;6224000;22;20016;-75
2023/06/12 11:58:01;;;;;;;9.20;6.25;;;27.60;69.30;;;;;;6249335;22;20016;-76
2023/06/12 12:00:30;;;;;;;10.02;7.10;;;27.90;65.00;;;;;;6223828;22;20054;-76
2023/06/12 12:02:58;;;;;;;9.68;6.85;;;27.80;65.70;;;;;;6223948;22;20015;-76
2023/06/12 12:05:24;;;;;;;9.70;7.22;;;27.70;65.50;;;;;;6248073;22;20492;-76
2023/06/12 12:08:03;;;;;;;8.43;6.20;;;27.80;65.50;;;;;;6274666;22;20087;-76
2023/06/12 12:10:30;;;;;;;11.80;7.13;;;27.90;66.90;;;;;;6248320;22;20458;-75
2023/06/12 12:13:03;;;;;;;10.43;7.22;;;28.10;66.30;;;;;;6248552;22;20004;-76
2023/06/12 12:15:42;;;;;;;10.80;7.20;;;28.00;61.90;;;;;;6223252;22;20007;-75
2023/06/12 12:18:12;;;;;;;9.25;6.78;;;27.90;65.80;;;;;;6224072;22;20008;-76
2023/06/12 12:20:38;;;;;;;13.20;7.28;;;27.60;67.50;;;;;;6249101;22;20015;-76
2023/06/12 12:23:10;;;;;;;10.93;6.63;;;27.50;69.10;;;;;;6273796;22;20014;-76
2023/06/12 12:25:35;;;;;;;10.88;6.57;;;27.40;70.50;;;;;;6249046;22;20012;-76
2023/06/12 12:28:02;;;;;;;9.75;6.90;;;27.30;70.80;;;;;;6250928;22;20015;-79
2023/06/12 12:30:27;;;;;;;9.05;6.47;;;27.30;70.80;;;;;;6271387;22;20062;-77
2023/06/12 12:32:55;;;;;;;9.90;7.53;;;27.30;70.80;;;;;;6212414;23;20008;-77
2023/06/12 12:35:22;;;;;;;10.75;6.88;;;27.40;70.30;;;;;;6224016;22;20008;-79
2023/06/12 12:37:49;;;;;;;9.98;7.45;;;27.50;68.20;;;;;;6225459;22;20047;-79
2023/06/12 12:40:15;;;;;;;11.20;7.65;;;27.60;63.80;;;;;;6301447;22;20058;-79
2023/06/12 12:42:43;;;;;;;8.70;6.63;;;27.80;65.10;;;;;;6219914;22;20007;-77
2023/06/12 12:45:10;;;;;;;10.60;7.10;;;27.90;60.40;;;;;;6246745;22;20020;-77
2023/06/12 12:47:36;;;;;;;10.45;6.70;;;27.80;62.10;;;;;;6224199;22;20042;-77